sensor_id;sensor_type;location;lat;lon;timestamp;P1;P2;P0
69222;PMS7003;56514;51.816;-0.026;2023-06-22T00:00:34;3.00;3.00;3.00
69222;PMS7003;56514;51.816;-0.026;2023-06-22T00:03:23;3.00;3.00;2.00
69222;PMS7003;56514;51.816;-0.026;2023-06-22T00:06:08;2.75;2.75;2.00
69222;PMS7003;56514;51.816;-0.026;2023-06-22T00:08:52;4.00;4.00;2.75
69222;PMS7003;56514;51.816;-0.026;2023-06-22T00:11:37;5.50;5.50;3.25
69222;PMS7003;56514;51.816;-0.026;2023-06-22T00:14:22;4.00;3.25;3.00
69222;PMS7003;56514;51.816;-0.026;2023-06-22T00:17:07;4.00;4.00;3.00
69222;PMS7003;56514;51.816;-0.026;2023-06-22T00:19:52;7.50;7.50;6.00
69222;PMS7003;56514;51.816;-0.026;2023-06-22T00:22:37;3.25;3.25;2.75
69222;PMS7003;56514;51.816;-0.026;2023-06-22T00:25:23;4.00;4.00;3.50
69222;PMS7003;56514;51.816;-0.026;2023-06-22T00:28:08;5.00;5.00;3.25
69222;PMS7003;56514;51.816;-0.026;2023-06-22T00:30:55;4.00;4.00;3.00
69222;PMS7003;56514;51.816;-0.026;2023-06-22T00:33:40;5.00;5.00;3.75
69222;PMS7003;56514;51.816;-0.026;2023-06-22T00:36:25;4.00;4.00;3.00
69222;PMS7003;56514;51.816;-0.026;2023-06-22T00:39:09;2.25;2.25;2.00
69222;PMS7003;56514;51.816;-0.026;2023-06-22T00:41:54;3.00;3.00;2.25
69222;PMS7003;56514;51.816;-0.026;2023-06-22T00:44:39;4.00;4.00;3.00
69222;PMS7003;56514;51.816;-0.026;2023-06-22T00:47:26;6.50;6.50;4.00
69222;PMS7003;56514;51.816;-0.026;2023-06-22T00:50:12;2.75;2.75;2.25
69222;PMS7003;56514;51.816;-0.026;2023-06-22T00:53:05;3.00;3.00;2.50
69222;PMS7003;56514;51.816;-0.026;2023-06-22T00:55:52;6.00;6.00;4.50
69222;PMS7003;56514;51.816;-0.026;2023-06-22T00:58:36;6.00;6.00;4.25
69222;PMS7003;56514;51.816;-0.026;2023-06-22T01:01:21;4.00;4.00;3.00
69222;PMS7003;56514;51.816;-0.026;2023-06-22T01:04:07;4.25;4.25;3.00
69222;PMS7003;56514;51.816;-0.026;2023-06-22T01:06:54;2.50;2.50;2.00
69222;PMS7003;56514;51.816;-0.026;2023-06-22T01:09:53;2.00;2.00;2.00
69222;PMS7003;56514;51.816;-0.026;2023-06-22T01:12:45;3.50;3.50;3.00
69222;PMS7003;56514;51.816;-0.026;2023-06-22T01:15:49;3.00;3.00;3.00
69222;PMS7003;56514;51.816;-0.026;2023-06-22T01:18:36;3.50;3.50;3.00
69222;PMS7003;56514;51.816;-0.026;2023-06-22T01:21:28;2.75;2.75;2.00
69222;PMS7003;56514;51.816;-0.026;2023-06-22T01:24:18;2.50;2.50;2.00
69222;PMS7003;56514;51.816;-0.026;2023-06-22T01:27:18;2.00;2.00;2.00
69222;PMS7003;56514;51.816;-0.026;2023-06-22T01:30:10;1.50;1.50;1.50
69222;PMS7003;56514;51.816;-0.026;2023-06-22T01:32:54;4.25;4.25;3.00
69222;PMS7003;56514;51.816;-0.026;2023-06-22T01:35:39;1.50;1.50;1.00
69222;PMS7003;56514;51.816;-0.026;2023-06-22T01:38:24;2.00;2.00;1.25
69222;PMS7003;56514;51.816;-0.026;2023-06-22T01:41:10;1.75;1.75;1.50
69222;PMS7003;56514;51.816;-0.026;2023-06-22T01:43:55;2.00;2.00;2.00
69222;PMS7003;56514;51.816;-0.026;2023-06-22T01:46:40;1.75;1.75;1.25
69222;PMS7003;56514;51.816;-0.026;2023-06-22T01:49:25;2.75;2.75;2.50
69222;PMS7003;56514;51.816;-0.026;2023-06-22T01:52:09;3.00;3.00;2.50
69222;PMS7003;56514;51.816;-0.026;2023-06-22T01:54:54;2.50;2.50;2.00
69222;PMS7003;56514;51.816;-0.026;2023-06-22T01:57:39;3.75;3.75;2.25
69222;PMS7003;56514;51.816;-0.026;2023-06-22T02:00:24;3.50;3.50;2.00
69222;PMS7003;56514;51.816;-0.026;2023-06-22T02:03:13;3.00;3.00;2.75
69222;PMS7003;56514;51.816;-0.026;2023-06-22T02:06:04;2.00;2.00;2.00
69222;PMS7003;56514;51.816;-0.026;2023-06-22T02:08:51;4.50;4.50;2.00
69222;PMS7003;56514;51.816;-0.026;2023-06-22T02:11:58;2.25;2.25;2.00
69222;PMS7003;56514;51.816;-0.026;2023-06-22T02:14:45;2.25;2.25;1.25
69222;PMS7003;56514;51.816;-0.026;2023-06-22T02:17:32;3.50;3.50;2.00
69222;PMS7003;56514;51.816;-0.026;2023-06-22T02:20:17;3.50;3.50;2.00
69222;PMS7003;56514;51.816;-0.026;2023-06-22T02:23:02;3.00;3.00;2.50
69222;PMS7003;56514;51.816;-0.026;2023-06-22T02:25:46;2.75;2.75;2.00
69222;PMS7003;56514;51.816;-0.026;2023-06-22T02:28:31;3.00;3.00;2.50
69222;PMS7003;56514;51.816;-0.026;2023-06-22T02:31:16;2.75;2.75;1.50
69222;PMS7003;56514;51.816;-0.026;2023-06-22T02:34:00;2.75;2.75;1.00
69222;PMS7003;56514;51.816;-0.026;2023-06-22T02:36:45;4.00;4.00;2.75
69222;PMS7003;56514;51.816;-0.026;2023-06-22T02:39:35;6.50;6.50;5.00
69222;PMS7003;56514;51.816;-0.026;2023-06-22T02:42:22;3.75;3.75;2.25
69222;PMS7003;56514;51.816;-0.026;2023-06-22T02:45:07;5.00;5.00;3.00
69222;PMS7003;56514;51.816;-0.026;2023-06-22T02:47:52;2.75;2.75;2.00
69222;PMS7003;56514;51.816;-0.026;2023-06-22T02:50:36;3.00;3.00;1.75
69222;PMS7003;56514;51.816;-0.026;2023-06-22T02:53:21;3.00;3.00;2.00
69222;PMS7003;56514;51.816;-0.026;2023-06-22T02:56:06;2.25;2.25;1.00
69222;PMS7003;56514;51.816;-0.026;2023-06-22T02:58:51;2.75;2.75;2.50
69222;PMS7003;56514;51.816;-0.026;2023-06-22T03:01:35;5.50;5.50;3.00
69222;PMS7003;56514;51.816;-0.026;2023-06-22T03:04:24;2.25;2.25;2.00
69222;PMS7003;56514;51.816;-0.026;2023-06-22T03:07:08;6.00;6.00;3.00
69222;PMS7003;56514;51.816;-0.026;2023-06-22T03:09:53;5.25;5.25;2.00
69222;PMS7003;56514;51.816;-0.026;2023-06-22T03:12:38;5.00;5.00;2.75
69222;PMS7003;56514;51.816;-0.026;2023-06-22T03:15:23;3.00;3.00;2.50
69222;PMS7003;56514;51.816;-0.026;2023-06-22T03:18:07;3.00;2.00;2.00
69222;PMS7003;56514;51.816;-0.026;2023-06-22T03:20:52;3.00;3.00;2.50
69222;PMS7003;56514;51.816;-0.026;2023-06-22T03:23:36;1.75;1.75;1.75
69222;PMS7003;56514;51.816;-0.026;2023-06-22T03:26:22;3.00;3.00;2.25
69222;PMS7003;56514;51.816;-0.026;2023-06-22T03:29:08;2.50;2.50;1.75
69222;PMS7003;56514;51.816;-0.026;2023-06-22T03:31:52;2.75;2.75;2.00
69222;PMS7003;56514;51.816;-0.026;2023-06-22T03:34:37;3.00;3.00;2.00
69222;PMS7003;56514;51.816;-0.026;2023-06-22T03:37:21;5.50;5.50;3.00
69222;PMS7003;56514;51.816;-0.026;2023-06-22T03:40:06;2.75;2.75;1.75
69222;PMS7003;56514;51.816;-0.026;2023-06-22T03:42:51;3.00;3.00;2.25
69222;PMS7003;56514;51.816;-0.026;2023-06-22T03:45:36;3.50;3.50;2.00
69222;PMS7003;56514;51.816;-0.026;2023-06-22T03:48:21;3.50;3.50;2.50
69222;PMS7003;56514;51.816;-0.026;2023-06-22T03:51:06;2.67;2.67;2.00
69222;PMS7003;56514;51.816;-0.026;2023-06-22T03:53:50;3.00;3.00;2.00
69222;PMS7003;56514;51.816;-0.026;2023-06-22T03:56:35;5.00;5.00;2.50
69222;PMS7003;56514;51.816;-0.026;2023-06-22T03:59:21;3.00;3.00;2.25
69222;PMS7003;56514;51.816;-0.026;2023-06-22T04:02:06;4.50;4.50;2.50
69222;PMS7003;56514;51.816;-0.026;2023-06-22T04:04:51;4.00;4.00;3.00
69222;PMS7003;56514;51.816;-0.026;2023-06-22T04:07:35;3.00;3.00;2.75
69222;PMS7003;56514;51.816;-0.026;2023-06-22T04:10:23;4.25;4.25;2.75
69222;PMS7003;56514;51.816;-0.026;2023-06-22T04:13:07;5.50;5.50;3.50
69222;PMS7003;56514;51.816;-0.026;2023-06-22T04:15:52;5.25;5.25;5.25
69222;PMS7003;56514;51.816;-0.026;2023-06-22T04:18:37;5.75;5.75;3.00
69222;PMS7003;56514;51.816;-0.026;2023-06-22T04:21:21;2.00;2.00;2.00
69222;PMS7003;56514;51.816;-0.026;2023-06-22T04:24:06;5.00;5.00;3.00
69222;PMS7003;56514;51.816;-0.026;2023-06-22T04:26:51;1.25;1.25;1.00
69222;PMS7003;56514;51.816;-0.026;2023-06-22T04:29:38;2.75;2.75;2.00
69222;PMS7003;56514;51.816;-0.026;2023-06-22T04:32:28;4.00;4.00;2.50
69222;PMS7003;56514;51.816;-0.026;2023-06-22T04:35:12;5.00;5.00;3.00
69222;PMS7003;56514;51.816;-0.026;2023-06-22T04:37:58;3.00;3.00;2.50
69222;PMS7003;56514;51.816;-0.026;2023-06-22T04:40:42;3.50;3.50;2.50
69222;PMS7003;56514;51.816;-0.026;2023-06-22T04:43:27;4.00;4.00;3.50
69222;PMS7003;56514;51.816;-0.026;2023-06-22T04:46:14;6.25;6.25;5.00
69222;PMS7003;56514;51.816;-0.026;2023-06-22T04:48:59;3.00;3.00;3.00
69222;PMS7003;56514;51.816;-0.026;2023-06-22T04:51:43;3.00;3.00;2.00
69222;PMS7003;56514;51.816;-0.026;2023-06-22T04:54:28;3.50;3.50;2.25
69222;PMS7003;56514;51.816;-0.026;2023-06-22T04:57:13;5.25;5.25;4.00
69222;PMS7003;56514;51.816;-0.026;2023-06-22T04:59:58;6.00;6.00;5.00
69222;PMS7003;56514;51.816;-0.026;2023-06-22T05:02:55;7.00;7.00;5.25
69222;PMS7003;56514;51.816;-0.026;2023-06-22T05:05:42;6.75;6.75;5.00
69222;PMS7003;56514;51.816;-0.026;2023-06-22T05:08:26;4.00;4.00;3.00
69222;PMS7003;56514;51.816;-0.026;2023-06-22T05:11:13;6.00;6.00;5.00
69222;PMS7003;56514;51.816;-0.026;2023-06-22T05:13:57;5.75;5.75;5.00
69222;PMS7003;56514;51.816;-0.026;2023-06-22T05:16:42;6.50;6.00;5.00
69222;PMS7003;56514;51.816;-0.026;2023-06-22T05:19:26;6.00;6.00;4.50
69222;PMS7003;56514;51.816;-0.026;2023-06-22T05:22:17;6.75;6.75;5.25
69222;PMS7003;56514;51.816;-0.026;2023-06-22T05:25:02;4.75;4.75;3.50
69222;PMS7003;56514;51.816;-0.026;2023-06-22T05:27:46;6.50;6.50;5.00
69222;PMS7003;56514;51.816;-0.026;2023-06-22T05:30:31;6.75;6.00;4.00
69222;PMS7003;56514;51.816;-0.026;2023-06-22T05:33:16;6.25;6.25;3.25
69222;PMS7003;56514;51.816;-0.026;2023-06-22T05:36:00;7.00;7.00;4.75
69222;PMS7003;56514;51.816;-0.026;2023-06-22T05:38:48;7.25;7.25;5.25
69222;PMS7003;56514;51.816;-0.026;2023-06-22T05:41:33;6.00;6.00;3.00
69222;PMS7003;56514;51.816;-0.026;2023-06-22T05:44:18;4.25;4.25;3.00
69222;PMS7003;56514;51.816;-0.026;2023-06-22T05:47:02;7.00;7.00;6.25
69222;PMS7003;56514;51.816;-0.026;2023-06-22T05:49:47;6.00;6.00;3.75
69222;PMS7003;56514;51.816;-0.026;2023-06-22T05:52:32;5.75;5.75;5.00
69222;PMS7003;56514;51.816;-0.026;2023-06-22T05:55:16;3.00;3.00;2.00
69222;PMS7003;56514;51.816;-0.026;2023-06-22T05:58:03;6.50;6.50;5.00
69222;PMS7003;56514;51.816;-0.026;2023-06-22T06:00:48;7.00;7.00;5.50
69222;PMS7003;56514;51.816;-0.026;2023-06-22T06:03:32;8.00;7.50;4.75
69222;PMS7003;56514;51.816;-0.026;2023-06-22T06:06:17;6.75;6.75;6.00
69222;PMS7003;56514;51.816;-0.026;2023-06-22T06:09:03;7.25;7.25;5.75
69222;PMS7003;56514;51.816;-0.026;2023-06-22T06:11:47;5.00;5.00;3.75
69222;PMS7003;56514;51.816;-0.026;2023-06-22T06:14:31;6.50;6.50;5.25
69222;PMS7003;56514;51.816;-0.026;2023-06-22T06:17:16;4.50;4.50;2.50
69222;PMS7003;56514;51.816;-0.026;2023-06-22T06:20:00;4.25;4.25;3.00
69222;PMS7003;56514;51.816;-0.026;2023-06-22T06:22:45;5.50;5.50;3.00
69222;PMS7003;56514;51.816;-0.026;2023-06-22T06:25:29;4.00;4.00;3.00
69222;PMS7003;56514;51.816;-0.026;2023-06-22T06:28:14;6.00;6.00;4.00
69222;PMS7003;56514;51.816;-0.026;2023-06-22T06:30:58;5.75;5.75;4.00
69222;PMS7003;56514;51.816;-0.026;2023-06-22T06:33:44;4.50;4.50;3.00
69222;PMS7003;56514;51.816;-0.026;2023-06-22T06:36:28;5.50;5.50;3.00
69222;PMS7003;56514;51.816;-0.026;2023-06-22T06:39:13;5.00;5.00;4.00
69222;PMS7003;56514;51.816;-0.026;2023-06-22T06:41:57;3.75;3.75;3.25
69222;PMS7003;56514;51.816;-0.026;2023-06-22T06:44:42;5.50;5.50;3.50
69222;PMS7003;56514;51.816;-0.026;2023-06-22T06:47:26;4.00;4.00;3.00
69222;PMS7003;56514;51.816;-0.026;2023-06-22T06:50:11;3.00;3.00;2.00
69222;PMS7003;56514;51.816;-0.026;2023-06-22T06:52:56;3.75;3.75;3.00
69222;PMS7003;56514;51.816;-0.026;2023-06-22T06:55:43;7.25;7.25;6.00
69222;PMS7003;56514;51.816;-0.026;2023-06-22T06:58:30;7.00;7.00;4.50
69222;PMS7003;56514;51.816;-0.026;2023-06-22T07:01:14;4.00;4.00;3.50
69222;PMS7003;56514;51.816;-0.026;2023-06-22T07:04:00;6.75;6.75;4.00
69222;PMS7003;56514;51.816;-0.026;2023-06-22T07:06:45;3.75;3.75;2.75
69222;PMS7003;56514;51.816;-0.026;2023-06-22T07:09:30;4.00;4.00;3.00
69222;PMS7003;56514;51.816;-0.026;2023-06-22T07:12:15;4.00;4.00;3.00
69222;PMS7003;56514;51.816;-0.026;2023-06-22T07:15:01;3.00;3.00;3.00
69222;PMS7003;56514;51.816;-0.026;2023-06-22T07:17:46;5.25;5.25;3.00
69222;PMS7003;56514;51.816;-0.026;2023-06-22T07:20:31;3.50;3.50;2.75
69222;PMS7003;56514;51.816;-0.026;2023-06-22T07:23:16;5.00;5.00;4.00
69222;PMS7003;56514;51.816;-0.026;2023-06-22T07:26:01;6.75;6.75;4.00
69222;PMS7003;56514;51.816;-0.026;2023-06-22T07:28:46;6.00;6.00;4.00
69222;PMS7003;56514;51.816;-0.026;2023-06-22T07:31:30;3.50;3.50;3.25
69222;PMS7003;56514;51.816;-0.026;2023-06-22T07:34:15;5.00;5.00;4.00
69222;PMS7003;56514;51.816;-0.026;2023-06-22T07:37:00;5.00;5.00;4.00
69222;PMS7003;56514;51.816;-0.026;2023-06-22T07:39:45;3.25;3.25;3.00
69222;PMS7003;56514;51.816;-0.026;2023-06-22T07:42:29;3.75;3.75;3.50
69222;PMS7003;56514;51.816;-0.026;2023-06-22T07:45:17;5.00;5.00;4.00
69222;PMS7003;56514;51.816;-0.026;2023-06-22T07:48:02;5.50;5.50;4.00
69222;PMS7003;56514;51.816;-0.026;2023-06-22T07:50:47;6.00;6.00;5.00
69222;PMS7003;56514;51.816;-0.026;2023-06-22T07:53:31;5.25;5.25;4.25
69222;PMS7003;56514;51.816;-0.026;2023-06-22T07:56:16;4.25;4.25;3.00
69222;PMS7003;56514;51.816;-0.026;2023-06-22T07:59:03;4.00;4.00;3.25
69222;PMS7003;56514;51.816;-0.026;2023-06-22T08:01:48;2.25;2.25;1.50
69222;PMS7003;56514;51.816;-0.026;2023-06-22T08:04:33;3.25;3.25;3.00
69222;PMS7003;56514;51.816;-0.026;2023-06-22T08:07:20;4.00;4.00;4.00
69222;PMS7003;56514;51.816;-0.026;2023-06-22T08:10:05;3.00;3.00;3.00
69222;PMS7003;56514;51.816;-0.026;2023-06-22T08:12:50;4.00;4.00;3.00
69222;PMS7003;56514;51.816;-0.026;2023-06-22T08:15:36;5.25;4.25;3.25
69222;PMS7003;56514;51.816;-0.026;2023-06-22T08:18:21;4.75;4.75;3.50
69222;PMS7003;56514;51.816;-0.026;2023-06-22T08:21:05;3.75;3.75;3.00
69222;PMS7003;56514;51.816;-0.026;2023-06-22T08:23:50;3.00;3.00;2.00
69222;PMS7003;56514;51.816;-0.026;2023-06-22T08:26:34;1.00;1.00;1.00
69222;PMS7003;56514;51.816;-0.026;2023-06-22T08:29:23;6.00;6.00;4.00
69222;PMS7003;56514;51.816;-0.026;2023-06-22T08:32:08;4.50;4.50;3.75
69222;PMS7003;56514;51.816;-0.026;2023-06-22T08:34:56;3.50;3.50;2.75
69222;PMS7003;56514;51.816;-0.026;2023-06-22T08:37:41;4.00;4.00;3.50
69222;PMS7003;56514;51.816;-0.026;2023-06-22T08:40:26;3.25;3.25;2.50
69222;PMS7003;56514;51.816;-0.026;2023-06-22T08:43:11;3.00;3.00;2.00
69222;PMS7003;56514;51.816;-0.026;2023-06-22T08:45:56;5.00;5.00;4.00
69222;PMS7003;56514;51.816;-0.026;2023-06-22T08:48:41;3.00;3.00;2.00
69222;PMS7003;56514;51.816;-0.026;2023-06-22T08:51:26;5.75;5.75;4.00
69222;PMS7003;56514;51.816;-0.026;2023-06-22T08:54:11;4.75;4.75;4.00
69222;PMS7003;56514;51.816;-0.026;2023-06-22T08:56:55;3.25;3.25;3.00
69222;PMS7003;56514;51.816;-0.026;2023-06-22T08:59:40;2.00;2.00;2.00
69222;PMS7003;56514;51.816;-0.026;2023-06-22T09:02:25;2.00;2.00;2.00
69222;PMS7003;56514;51.816;-0.026;2023-06-22T09:05:10;3.00;3.00;2.25
69222;PMS7003;56514;51.816;-0.026;2023-06-22T09:07:56;2.75;2.75;2.00
69222;PMS7003;56514;51.816;-0.026;2023-06-22T09:10:44;3.25;3.25;2.50
69222;PMS7003;56514;51.816;-0.026;2023-06-22T09:13:30;2.25;2.25;1.75
69222;PMS7003;56514;51.816;-0.026;2023-06-22T09:16:24;2.50;2.50;2.00
69222;PMS7003;56514;51.816;-0.026;2023-06-22T09:19:12;2.00;2.00;2.00
69222;PMS7003;56514;51.816;-0.026;2023-06-22T09:21:57;3.50;3.50;3.00
69222;PMS7003;56514;51.816;-0.026;2023-06-22T09:24:42;4.25;4.25;4.00
69222;PMS7003;56514;51.816;-0.026;2023-06-22T09:27:26;2.25;2.25;2.00
69222;PMS7003;56514;51.816;-0.026;2023-06-22T09:30:11;2.25;2.25;2.00
69222;PMS7003;56514;51.816;-0.026;2023-06-22T09:32:55;3.00;3.00;3.00
69222;PMS7003;56514;51.816;-0.026;2023-06-22T09:35:40;4.25;4.25;3.50
69222;PMS7003;56514;51.816;-0.026;2023-06-22T09:38:24;3.00;3.00;2.00
69222;PMS7003;56514;51.816;-0.026;2023-06-22T09:41:09;2.75;2.75;2.00
69222;PMS7003;56514;51.816;-0.026;2023-06-22T09:43:54;3.00;3.00;3.00
69222;PMS7003;56514;51.816;-0.026;2023-06-22T09:46:38;2.00;2.00;1.25
69222;PMS7003;56514;51.816;-0.026;2023-06-22T09:49:23;3.25;3.25;3.00
69222;PMS7003;56514;51.816;-0.026;2023-06-22T09:52:07;4.25;4.25;4.00
69222;PMS7003;56514;51.816;-0.026;2023-06-22T09:54:51;2.75;2.75;2.00
69222;PMS7003;56514;51.816;-0.026;2023-06-22T09:57:36;2.25;2.25;2.25
69222;PMS7003;56514;51.816;-0.026;2023-06-22T10:00:21;3.50;3.50;3.00
69222;PMS7003;56514;51.816;-0.026;2023-06-22T10:03:06;4.00;4.00;2.50
69222;PMS7003;56514;51.816;-0.026;2023-06-22T10:05:51;5.00;5.00;4.00
69222;PMS7003;56514;51.816;-0.026;2023-06-22T10:08:36;4.75;3.50;3.50
69222;PMS7003;56514;51.816;-0.026;2023-06-22T10:11:24;4.00;4.00;3.25
69222;PMS7003;56514;51.816;-0.026;2023-06-22T10:14:13;3.00;3.00;2.75
69222;PMS7003;56514;51.816;-0.026;2023-06-22T10:16:58;3.50;3.50;3.00
69222;PMS7003;56514;51.816;-0.026;2023-06-22T10:19:42;3.25;3.25;3.25
69222;PMS7003;56514;51.816;-0.026;2023-06-22T10:22:27;5.00;5.00;4.00
69222;PMS7003;56514;51.816;-0.026;2023-06-22T10:25:12;4.25;4.25;4.00
69222;PMS7003;56514;51.816;-0.026;2023-06-22T10:27:57;3.00;3.00;2.75
69222;PMS7003;56514;51.816;-0.026;2023-06-22T10:30:41;4.50;4.50;4.00
69222;PMS7003;56514;51.816;-0.026;2023-06-22T10:33:26;3.00;3.00;2.50
69222;PMS7003;56514;51.816;-0.026;2023-06-22T10:36:11;2.75;2.75;2.00
69222;PMS7003;56514;51.816;-0.026;2023-06-22T10:38:55;2.75;2.75;2.00
69222;PMS7003;56514;51.816;-0.026;2023-06-22T10:41:40;3.00;3.00;3.00
69222;PMS7003;56514;51.816;-0.026;2023-06-22T10:44:24;2.00;2.00;1.50
69222;PMS7003;56514;51.816;-0.026;2023-06-22T10:47:10;4.00;4.00;3.25
69222;PMS7003;56514;51.816;-0.026;2023-06-22T10:49:55;3.25;3.25;3.25
69222;PMS7003;56514;51.816;-0.026;2023-06-22T10:52:40;5.00;5.00;4.00
69222;PMS7003;56514;51.816;-0.026;2023-06-22T10:55:26;3.00;3.00;3.00
69222;PMS7003;56514;51.816;-0.026;2023-06-22T10:58:10;4.00;4.00;3.75
69222;PMS7003;56514;51.816;-0.026;2023-06-22T11:00:55;5.00;5.00;4.75
69222;PMS7003;56514;51.816;-0.026;2023-06-22T11:03:39;3.00;3.00;2.00
69222;PMS7003;56514;51.816;-0.026;2023-06-22T11:06:24;3.00;3.00;3.00
69222;PMS7003;56514;51.816;-0.026;2023-06-22T11:09:09;4.00;4.00;3.00
69222;PMS7003;56514;51.816;-0.026;2023-06-22T11:11:53;3.50;3.50;3.00
69222;PMS7003;56514;51.816;-0.026;2023-06-22T11:14:38;3.00;3.00;3.00
69222;PMS7003;56514;51.816;-0.026;2023-06-22T11:17:23;3.00;3.00;1.75
69222;PMS7003;56514;51.816;-0.026;2023-06-22T11:20:08;2.75;2.75;2.25
69222;PMS7003;56514;51.816;-0.026;2023-06-22T11:22:55;3.00;3.00;2.75
69222;PMS7003;56514;51.816;-0.026;2023-06-22T11:25:40;2.75;2.75;2.00
69222;PMS7003;56514;51.816;-0.026;2023-06-22T11:28:27;2.75;2.75;2.50
69222;PMS7003;56514;51.816;-0.026;2023-06-22T11:31:12;3.00;3.00;2.75
69222;PMS7003;56514;51.816;-0.026;2023-06-22T11:33:56;3.00;3.00;2.00
69222;PMS7003;56514;51.816;-0.026;2023-06-22T11:36:41;2.25;2.25;2.00
69222;PMS7003;56514;51.816;-0.026;2023-06-22T11:39:25;5.00;5.00;4.00
69222;PMS7003;56514;51.816;-0.026;2023-06-22T11:42:10;4.00;4.00;3.00
69222;PMS7003;56514;51.816;-0.026;2023-06-22T11:44:54;3.00;3.00;3.00
69222;PMS7003;56514;51.816;-0.026;2023-06-22T11:47:39;3.00;3.00;2.25
69222;PMS7003;56514;51.816;-0.026;2023-06-22T11:50:25;3.00;3.00;2.25
69222;PMS7003;56514;51.816;-0.026;2023-06-22T11:53:09;3.00;3.00;3.00
69222;PMS7003;56514;51.816;-0.026;2023-06-22T11:55:54;3.00;3.00;3.00
69222;PMS7003;56514;51.816;-0.026;2023-06-22T11:58:39;3.25;3.25;2.50
69222;PMS7003;56514;51.816;-0.026;2023-06-22T12:01:24;2.50;2.50;2.00
69222;PMS7003;56514;51.816;-0.026;2023-06-22T12:04:08;3.50;3.50;3.50
69222;PMS7003;56514;51.816;-0.026;2023-06-22T12:06:55;3.25;3.25;3.00
69222;PMS7003;56514;51.816;-0.026;2023-06-22T12:09:39;3.00;3.00;3.00
69222;PMS7003;56514;51.816;-0.026;2023-06-22T12:12:24;2.50;2.50;2.25
69222;PMS7003;56514;51.816;-0.026;2023-06-22T12:15:09;3.25;3.25;3.00
69222;PMS7003;56514;51.816;-0.026;2023-06-22T12:17:54;4.00;4.00;4.00
69222;PMS7003;56514;51.816;-0.026;2023-06-22T12:20:38;3.00;3.00;3.00
69222;PMS7003;56514;51.816;-0.026;2023-06-22T12:23:23;3.75;3.75;2.75
69222;PMS7003;56514;51.816;-0.026;2023-06-22T12:26:07;3.50;3.50;3.25
69222;PMS7003;56514;51.816;-0.026;2023-06-22T12:28:52;4.25;4.25;4.00
69222;PMS7003;56514;51.816;-0.026;2023-06-22T12:31:36;3.25;3.25;3.25
69222;PMS7003;56514;51.816;-0.026;2023-06-22T12:34:23;2.75;2.75;2.75
69222;PMS7003;56514;51.816;-0.026;2023-06-22T12:37:07;3.00;3.00;2.75
69222;PMS7003;56514;51.816;-0.026;2023-06-22T12:39:53;2.75;2.75;1.75
69222;PMS7003;56514;51.816;-0.026;2023-06-22T12:42:39;3.00;3.00;3.00
69222;PMS7003;56514;51.816;-0.026;2023-06-22T12:45:24;4.25;4.25;3.75
69222;PMS7003;56514;51.816;-0.026;2023-06-22T12:48:12;3.00;3.00;3.00
69222;PMS7003;56514;51.816;-0.026;2023-06-22T12:50:58;2.00;2.00;2.00
69222;PMS7003;56514;51.816;-0.026;2023-06-22T12:53:42;2.00;2.00;2.00
69222;PMS7003;56514;51.816;-0.026;2023-06-22T12:56:27;1.75;1.75;1.00
69222;PMS7003;56514;51.816;-0.026;2023-06-22T12:59:12;3.00;3.00;2.25
69222;PMS7003;56514;51.816;-0.026;2023-06-22T13:01:56;1.50;1.50;1.00
69222;PMS7003;56514;51.816;-0.026;2023-06-22T13:04:41;1.00;1.00;1.00
69222;PMS7003;56514;51.816;-0.026;2023-06-22T13:07:27;1.00;1.00;1.00
69222;PMS7003;56514;51.816;-0.026;2023-06-22T13:10:11;1.75;1.75;1.50
69222;PMS7003;56514;51.816;-0.026;2023-06-22T13:12:56;1.00;1.00;1.00
69222;PMS7003;56514;51.816;-0.026;2023-06-22T13:15:44;1.00;1.00;1.00
69222;PMS7003;56514;51.816;-0.026;2023-06-22T13:18:29;2.00;2.00;1.00
69222;PMS7003;56514;51.816;-0.026;2023-06-22T13:21:13;0.25;0.25;0.00
69222;PMS7003;56514;51.816;-0.026;2023-06-22T13:23:59;2.00;2.00;1.25
69222;PMS7003;56514;51.816;-0.026;2023-06-22T13:26:43;1.75;1.75;1.75
69222;PMS7003;56514;51.816;-0.026;2023-06-22T13:29:28;1.00;1.00;0.00
69222;PMS7003;56514;51.816;-0.026;2023-06-22T13:32:12;1.75;1.75;1.25
69222;PMS7003;56514;51.816;-0.026;2023-06-22T13:34:57;2.00;2.00;1.25
69222;PMS7003;56514;51.816;-0.026;2023-06-22T13:37:41;1.50;1.50;1.25
69222;PMS7003;56514;51.816;-0.026;2023-06-22T13:40:26;1.25;1.25;1.25
69222;PMS7003;56514;51.816;-0.026;2023-06-22T13:43:11;2.00;2.00;2.00
69222;PMS7003;56514;51.816;-0.026;2023-06-22T13:45:55;2.25;2.25;2.25
69222;PMS7003;56514;51.816;-0.026;2023-06-22T13:48:40;2.25;2.25;2.00
69222;PMS7003;56514;51.816;-0.026;2023-06-22T13:51:24;2.00;2.00;2.00
69222;PMS7003;56514;51.816;-0.026;2023-06-22T13:54:09;0.50;0.50;0.50
69222;PMS7003;56514;51.816;-0.026;2023-06-22T13:56:53;0.50;0.50;0.00
69222;PMS7003;56514;51.816;-0.026;2023-06-22T13:59:38;2.00;2.00;1.75
69222;PMS7003;56514;51.816;-0.026;2023-06-22T14:02:22;1.50;1.50;1.25
69222;PMS7003;56514;51.816;-0.026;2023-06-22T14:05:07;2.00;2.00;2.00
69222;PMS7003;56514;51.816;-0.026;2023-06-22T14:07:52;2.00;2.00;2.00
69222;PMS7003;56514;51.816;-0.026;2023-06-22T14:10:36;2.00;2.00;2.00
69222;PMS7003;56514;51.816;-0.026;2023-06-22T14:13:23;1.00;1.00;1.00
69222;PMS7003;56514;51.816;-0.026;2023-06-22T14:16:07;2.00;2.00;1.75
69222;PMS7003;56514;51.816;-0.026;2023-06-22T14:18:53;2.00;2.00;2.00
69222;PMS7003;56514;51.816;-0.026;2023-06-22T14:21:38;2.75;2.75;2.25
69222;PMS7003;56514;51.816;-0.026;2023-06-22T14:24:23;1.00;1.00;1.00
69222;PMS7003;56514;51.816;-0.026;2023-06-22T14:27:07;2.00;2.00;1.00
69222;PMS7003;56514;51.816;-0.026;2023-06-22T14:29:53;3.00;3.00;2.75
69222;PMS7003;56514;51.816;-0.026;2023-06-22T14:32:37;2.00;2.00;1.75
69222;PMS7003;56514;51.816;-0.026;2023-06-22T14:35:22;2.00;2.00;2.00
69222;PMS7003;56514;51.816;-0.026;2023-06-22T14:38:08;1.75;1.75;1.75
69222;PMS7003;56514;51.816;-0.026;2023-06-22T14:40:52;1.75;1.75;1.50
69222;PMS7003;56514;51.816;-0.026;2023-06-22T14:43:37;2.00;2.00;2.00
69222;PMS7003;56514;51.816;-0.026;2023-06-22T14:46:23;3.50;3.50;3.00
69222;PMS7003;56514;51.816;-0.026;2023-06-22T14:49:08;4.00;4.00;3.25
69222;PMS7003;56514;51.816;-0.026;2023-06-22T14:51:52;4.00;4.00;3.00
69222;PMS7003;56514;51.816;-0.026;2023-06-22T14:54:37;2.50;2.50;2.00
69222;PMS7003;56514;51.816;-0.026;2023-06-22T14:57:22;1.00;1.00;1.00
69222;PMS7003;56514;51.816;-0.026;2023-06-22T15:00:07;2.00;2.00;2.00
69222;PMS7003;56514;51.816;-0.026;2023-06-22T15:02:52;2.75;2.75;2.00
69222;PMS7003;56514;51.816;-0.026;2023-06-22T15:05:37;2.00;2.00;1.50
69222;PMS7003;56514;51.816;-0.026;2023-06-22T15:08:21;1.00;1.00;1.00
69222;PMS7003;56514;51.816;-0.026;2023-06-22T15:11:06;1.25;1.25;1.25
69222;PMS7003;56514;51.816;-0.026;2023-06-22T15:13:51;1.50;1.50;1.00
69222;PMS7003;56514;51.816;-0.026;2023-06-22T15:16:35;2.25;2.25;1.75
69222;PMS7003;56514;51.816;-0.026;2023-06-22T15:19:21;2.00;2.00;1.75
69222;PMS7003;56514;51.816;-0.026;2023-06-22T15:22:05;1.50;1.50;1.00
69222;PMS7003;56514;51.816;-0.026;2023-06-22T15:24:50;3.25;3.25;3.00
69222;PMS7003;56514;51.816;-0.026;2023-06-22T15:27:37;2.50;2.50;2.25
69222;PMS7003;56514;51.816;-0.026;2023-06-22T15:30:23;0.00;0.00;0.00
69222;PMS7003;56514;51.816;-0.026;2023-06-22T15:33:07;2.25;2.25;2.00
69222;PMS7003;56514;51.816;-0.026;2023-06-22T15:35:52;2.50;2.50;2.00
69222;PMS7003;56514;51.816;-0.026;2023-06-22T15:38:40;0.75;0.75;0.75
69222;PMS7003;56514;51.816;-0.026;2023-06-22T15:41:25;2.25;2.25;1.50
69222;PMS7003;56514;51.816;-0.026;2023-06-22T15:44:10;1.00;1.00;1.00
69222;PMS7003;56514;51.816;-0.026;2023-06-22T15:46:54;2.25;2.25;1.75
69222;PMS7003;56514;51.816;-0.026;2023-06-22T15:49:39;2.25;2.25;2.00
69222;PMS7003;56514;51.816;-0.026;2023-06-22T15:52:24;3.00;3.00;2.75